Main page
METAR-TAF:

METAR-TAF

Airports :

Pointe-à-Pitre International Airport

Pointe-à-Pitre, Guadeloupe

latitude: 16-16N, longitude: 061-31W, elevation: 11 m

Current weather observation

The report was made 23 minutes ago, at 16:30 UTC
Wind 12 kt from the Southeast
Temperature 31°C
Humidity 66%
Pressure 1012 hPa
Visibility 10 km or more

METAR: TFFR 231630Z AUTO 14012KT 9999 SCT031/// 31/24 Q1012 TEMPO 3000 SHRA BKN018TCU

Time: 12:53 (16:53 UTC)

Forecast

The report was made 5 hours and 53 minutes ago, at 11:00 UTC
Forecast valid from 23 at 12 UTC to 24 at 12 UTC
Wind 10 kt from the East
Visibility 10 km or more
Scattered clouds at a height of 3000 ft
Scattered clouds at a height of 5000 ft
Probability 40% :
Temporary
from 23 at 12 UTC to 23 at 18 UTC
Visibility: 3000 m
Broken clouds at a height of 1800 ft, Towering cumulus.
rain showers

TAF: TFFR 231100Z 2312/2412 10010KT 9999 SCT030 SCT050 PROB40 TEMPO 2312/2318 3000 SHRA BKN018TCU

Weather observations and forecasts of more than 4000 airports (METAR and TAF reports).

The available stations are represented by yellow and red dots on the map.

Hover mouse over dot to see the name of the station.

Then click to see weather observations and forecasts.

To change the map : click on the green buttons with a black cross to zoom in, on the green button with a dash to zoom out, or on the green arrows for adjacent maps.


METAR-TAF: